KLIC/LIC METAR and TAF weather

Enter ICAO airport designator
Station Type Date Time Source
KLIC METAR 2022/01/18 06:55 UTC NOAA

KLIC 180655Z AUTO 33003KT 10SM CLR M07/M10 A2988 RMK AO2 SLP104 T10671100 401721117 $


Station Type Date Time Source
KLIC Decoded METAR 2022/01/18 06:55 UTC NOAA

LIMON MUNICIPAL AIRPORT, CO, United States (KLIC) 39-16N 103-40W 1630M
Jan 18, 2022 - 01:55 AM EST / 2022.01.18 0655 UTC
Wind: from the NNW (330 degrees) at 3 MPH (3 KT):0
Visibility: 10 mile(s):0
Sky conditions: clear
Temperature: 19.9 F (-6.7 C)
Dew Point: 14.0 F (-10.0 C)
Relative Humidity: 77%
Pressure (altimeter): 29.88 in. Hg (1011 hPa)
ob: KLIC 180655Z AUTO 33003KT 10SM CLR M07/M10 A2988 RMK AO2 SLP104 T10671100 401721117
cycle: 7

Station Type Date Time Source
KLIC TAF UTC NOAA

Error!

Example: see airport list